Time;durP1;ratioP1;P1;durP2;ratioP2;P2;SDS_P1;SDS_P2;PMS_P1;PMS_P2;Temp;Humidity;BMP_temperature;BMP_pressure;BME280_temperature;BME280_humidity;BME280_pressure;Samples;Min_cycle;Max_cycle;Signal;HPM_P1;HPM_P2
2023/06/27 00:02:06;;;;;;;5.20;4.80;;;;;;;;;;6210684;28;20253;-70
2023/06/27 00:05:11;;;;;;;6.88;5.10;;;;;;;;;;6223972;28;20304;-70
2023/06/27 00:08:17;;;;;;;5.63;5.20;;;;;;;;;;6233488;28;20577;-72
2023/06/27 00:11:22;;;;;;;5.85;5.20;;;;;;;;;;6233568;28;20292;-70
2023/06/27 00:14:26;;;;;;;10.00;5.30;;;;;;;;;;6234387;28;20312;-70
2023/06/27 00:17:32;;;;;;;5.72;5.20;;;;;;;;;;6235223;28;20363;-70
2023/06/27 00:20:37;;;;;;;12.73;5.95;;;;;;;;;;6234554;28;20295;-70
2023/06/27 00:23:43;;;;;;;8.13;5.35;;;;;;;;;;6234595;28;20242;-72
2023/06/27 00:26:48;;;;;;;5.50;5.10;;;;;;;;;;6235043;28;20284;-71
2023/06/27 00:29:56;;;;;;;6.15;5.82;;;;;;;;;;6232811;28;20308;-70
2023/06/27 00:33:01;;;;;;;6.38;5.55;;;;;;;;;;6233025;28;20552;-70
2023/06/27 00:36:08;;;;;;;6.50;5.97;;;;;;;;;;6215889;28;20300;-70
2023/06/27 00:39:14;;;;;;;6.00;5.53;;;;;;;;;;6234003;28;20287;-69
2023/06/27 00:42:19;;;;;;;5.72;5.28;;;;;;;;;;6233525;28;20272;-70
2023/06/27 00:45:23;;;;;;;6.32;5.50;;;;;;;;;;6234304;28;20486;-69
2023/06/27 00:48:28;;;;;;;5.70;5.20;;;;;;;;;;6249046;28;20272;-70
2023/06/27 00:51:33;;;;;;;6.05;5.35;;;;;;;;;;6248822;28;20304;-69
2023/06/27 00:54:39;;;;;;;6.07;5.65;;;;;;;;;;6234024;28;20313;-70
2023/06/27 00:57:43;;;;;;;6.45;5.63;;;;;;;;;;6233953;28;20249;-69
2023/06/27 01:00:48;;;;;;;6.35;5.85;;;;;;;;;;6234279;28;20300;-70
2023/06/27 01:03:53;;;;;;;8.02;5.65;;;;;;;;;;6254989;23;20483;-78
2023/06/27 01:07:02;;;;;;;9.10;5.68;;;;;;;;;;6283804;28;20271;-80
2023/06/27 01:10:13;;;;;;;6.38;5.85;;;;;;;;;;6257134;28;20532;-79
2023/06/27 01:13:21;;;;;;;6.30;5.90;;;;;;;;;;6257458;28;20267;-79
2023/06/27 01:16:29;;;;;;;6.78;6.20;;;;;;;;;;6283909;28;20299;-79
2023/06/27 01:19:34;;;;;;;6.47;5.65;;;;;;;;;;6265239;28;20291;-79
2023/06/27 01:22:43;;;;;;;6.15;5.65;;;;;;;;;;6263322;28;20260;-79
2023/06/27 01:25:51;;;;;;;6.40;5.85;;;;;;;;;;6261594;28;20305;-79
2023/06/27 01:28:56;;;;;;;6.28;5.60;;;;;;;;;;6245467;28;20280;-79
2023/06/27 01:32:05;;;;;;;8.77;6.03;;;;;;;;;;6263505;28;20236;-79
2023/06/27 01:35:14;;;;;;;6.53;5.82;;;;;;;;;;6263312;28;20295;-79
2023/06/27 01:38:30;;;;;;;6.25;5.78;;;;;;;;;;6256933;28;20268;-79
2023/06/27 01:41:38;;;;;;;7.75;5.60;;;;;;;;;;6269385;28;20298;-79
2023/06/27 01:44:46;;;;;;;6.03;5.53;;;;;;;;;;6287771;28;20286;-79
2023/06/27 01:47:51;;;;;;;6.03;5.65;;;;;;;;;;6289527;28;20251;-79
2023/06/27 01:50:56;;;;;;;6.13;5.72;;;;;;;;;;6270502;28;20295;-79
2023/06/27 01:54:01;;;;;;;6.95;6.18;;;;;;;;;;6287517;28;20249;-79
2023/06/27 01:57:08;;;;;;;7.25;6.25;;;;;;;;;;6288085;28;20244;-79
2023/06/27 02:00:13;;;;;;;6.43;5.82;;;;;;;;;;6269032;28;20283;-79
2023/06/27 02:03:36;;;;;;;6.32;5.75;;;;;;;;;;6291327;28;20568;-79
2023/06/27 02:06:41;;;;;;;6.53;5.68;;;;;;;;;;6287134;28;20514;-79
2023/06/27 02:09:47;;;;;;;6.50;5.97;;;;;;;;;;6269079;28;20291;-79
2023/06/27 02:12:53;;;;;;;6.45;6.00;;;;;;;;;;6287796;28;20243;-80
2023/06/27 02:15:58;;;;;;;6.18;5.72;;;;;;;;;;6287744;28;20306;-79
2023/06/27 02:19:02;;;;;;;6.32;5.82;;;;;;;;;;6287277;28;20394;-80
2023/06/27 02:22:07;;;;;;;6.97;6.53;;;;;;;;;;6268876;28;20452;-79
2023/06/27 02:25:11;;;;;;;6.18;5.72;;;;;;;;;;6268823;28;20290;-79
2023/06/27 02:28:17;;;;;;;6.10;5.63;;;;;;;;;;6286979;28;20243;-79
2023/06/27 02:31:22;;;;;;;5.50;5.22;;;;;;;;;;6286654;28;20496;-79
2023/06/27 02:34:28;;;;;;;6.10;5.60;;;;;;;;;;6267723;28;20299;-79
2023/06/27 02:37:33;;;;;;;6.25;5.50;;;;;;;;;;6287037;28;20243;-79
2023/06/27 02:40:40;;;;;;;6.47;6.07;;;;;;;;;;6268485;28;20477;-79
2023/06/27 02:43:46;;;;;;;6.90;6.30;;;;;;;;;;6267867;28;20275;-79
2023/06/27 02:46:50;;;;;;;5.93;5.53;;;;;;;;;;6289682;28;20552;-81
2023/06/27 02:49:55;;;;;;;5.97;5.65;;;;;;;;;;6293292;28;20296;-75
2023/06/27 02:53:00;;;;;;;5.45;5.25;;;;;;;;;;6291570;28;20244;-80
2023/06/27 02:56:07;;;;;;;5.88;5.40;;;;;;;;;;6267349;28;20298;-79
2023/06/27 02:59:15;;;;;;;6.28;5.75;;;;;;;;;;6267243;28;20303;-79
2023/06/27 03:02:20;;;;;;;6.75;6.30;;;;;;;;;;6259459;28;20296;-80
2023/06/27 03:05:24;;;;;;;6.55;6.15;;;;;;;;;;6267810;28;20481;-78
2023/06/27 03:08:30;;;;;;;6.65;6.25;;;;;;;;;;6242691;28;20490;-79
2023/06/27 03:11:35;;;;;;;6.53;6.22;;;;;;;;;;6258329;28;20279;-79
2023/06/27 03:14:41;;;;;;;5.93;5.63;;;;;;;;;;6266620;28;20299;-78
2023/06/27 03:17:47;;;;;;;5.90;5.60;;;;;;;;;;6266904;28;20291;-79
2023/06/27 03:20:51;;;;;;;5.88;5.57;;;;;;;;;;6245696;28;20294;-78
2023/06/27 03:23:56;;;;;;;6.10;5.80;;;;;;;;;;6260697;28;20339;-79
2023/06/27 03:27:02;;;;;;;5.53;5.22;;;;;;;;;;6259229;28;20287;-79
2023/06/27 03:30:10;;;;;;;6.20;5.78;;;;;;;;;;6260672;28;20300;-79
2023/06/27 03:33:14;;;;;;;6.07;5.53;;;;;;;;;;6258922;28;20296;-79
2023/06/27 03:36:19;;;;;;;5.53;5.22;;;;;;;;;;6269345;28;20249;-78
2023/06/27 03:39:24;;;;;;;5.50;5.30;;;;;;;;;;6266830;28;20496;-79
2023/06/27 03:42:29;;;;;;;5.97;5.38;;;;;;;;;;6266426;28;20291;-80
2023/06/27 03:45:35;;;;;;;5.68;5.28;;;;;;;;;;6285479;28;20235;-79
2023/06/27 03:48:39;;;;;;;5.05;4.68;;;;;;;;;;6267034;28;20299;-79
2023/06/27 03:51:44;;;;;;;4.68;4.38;;;;;;;;;;6266919;28;20355;-78
2023/06/27 03:54:49;;;;;;;5.05;4.57;;;;;;;;;;6266352;28;20295;-79
2023/06/27 03:57:53;;;;;;;5.30;4.82;;;;;;;;;;6284744;28;20295;-79
2023/06/27 04:00:59;;;;;;;5.80;5.50;;;;;;;;;;6266801;28;20403;-79
2023/06/27 04:04:04;;;;;;;5.72;4.75;;;;;;;;;;6265851;28;20323;-79
2023/06/27 04:07:09;;;;;;;5.25;4.95;;;;;;;;;;6266314;28;20291;-80
2023/06/27 04:10:14;;;;;;;6.80;4.93;;;;;;;;;;6284330;28;20299;-79
2023/06/27 04:13:18;;;;;;;4.72;4.60;;;;;;;;;;6284337;28;20365;-80
2023/06/27 04:16:24;;;;;;;4.70;4.50;;;;;;;;;;6284885;28;20232;-79
2023/06/27 04:19:29;;;;;;;5.13;4.75;;;;;;;;;;6265612;28;20295;-79
2023/06/27 04:22:35;;;;;;;5.55;5.22;;;;;;;;;;6265163;28;20274;-80
2023/06/27 04:25:43;;;;;;;5.05;4.75;;;;;;;;;;6284992;28;20236;-79
2023/06/27 04:28:48;;;;;;;5.75;5.22;;;;;;;;;;6265406;28;20291;-80
2023/06/27 04:31:54;;;;;;;5.65;5.18;;;;;;;;;;6284792;28;20235;-80
2023/06/27 04:34:59;;;;;;;5.75;5.43;;;;;;;;;;6283925;28;20294;-80
2023/06/27 04:38:04;;;;;;;5.03;4.63;;;;;;;;;;6284266;28;20290;-79
2023/06/27 04:41:09;;;;;;;5.60;5.07;;;;;;;;;;6284657;28;20283;-80
2023/06/27 04:44:14;;;;;;;5.00;4.80;;;;;;;;;;6265800;28;20299;-80
2023/06/27 04:47:22;;;;;;;4.93;4.72;;;;;;;;;;6284674;28;20264;-80
2023/06/27 04:50:27;;;;;;;4.85;4.75;;;;;;;;;;6284186;28;20263;-80
2023/06/27 04:53:32;;;;;;;5.30;5.05;;;;;;;;;;6284208;28;20283;-80
2023/06/27 04:56:37;;;;;;;5.95;5.38;;;;;;;;;;6285857;28;20391;-79
2023/06/27 04:59:42;;;;;;;5.38;5.10;;;;;;;;;;6289548;28;20487;-79
2023/06/27 05:02:48;;;;;;;5.90;4.70;;;;;;;;;;6288869;28;20290;-79
2023/06/27 05:05:53;;;;;;;5.57;4.88;;;;;;;;;;6264083;28;20232;-78
2023/06/27 05:08:58;;;;;;;4.95;4.53;;;;;;;;;;6263689;28;20319;-79
2023/06/27 05:12:02;;;;;;;5.15;4.95;;;;;;;;;;6243290;28;20490;-80
2023/06/27 05:15:08;;;;;;;4.93;4.72;;;;;;;;;;6239592;28;20304;-80
2023/06/27 05:18:27;;;;;;;5.47;4.97;;;;;;;;;;6239034;28;20295;-80
2023/06/27 05:21:31;;;;;;;4.78;4.47;;;;;;;;;;6239930;28;20241;-79
2023/06/27 05:24:36;;;;;;;4.45;4.25;;;;;;;;;;6238866;28;20296;-78
2023/06/27 05:27:40;;;;;;;4.13;4.03;;;;;;;;;;6239016;28;20360;-79
2023/06/27 05:30:45;;;;;;;5.40;4.50;;;;;;;;;;6239077;28;20245;-78
2023/06/27 05:33:51;;;;;;;4.50;4.10;;;;;;;;;;6238310;28;20297;-78
2023/06/27 05:36:55;;;;;;;6.72;3.95;;;;;;;;;;6238768;28;20254;-79
2023/06/27 05:40:00;;;;;;;7.43;4.32;;;;;;;;;;6238674;28;20460;-79
2023/06/27 05:43:04;;;;;;;7.05;3.88;;;;;;;;;;6236703;28;20296;-79
2023/06/27 05:46:09;;;;;;;4.05;3.88;;;;;;;;;;6238433;28;20430;-79
2023/06/27 05:49:15;;;;;;;3.65;3.45;;;;;;;;;;6238208;28;20296;-79
2023/06/27 05:52:20;;;;;;;3.72;3.42;;;;;;;;;;6238730;28;20241;-79
2023/06/27 05:55:25;;;;;;;3.50;3.33;;;;;;;;;;6237568;28;20269;-78
2023/06/27 05:58:30;;;;;;;3.85;3.45;;;;;;;;;;6238109;28;20292;-78
2023/06/27 06:01:37;;;;;;;13.38;3.95;;;;;;;;;;6238796;28;20518;-80
2023/06/27 06:04:43;;;;;;;3.90;3.25;;;;;;;;;;6253691;28;20307;-81
2023/06/27 06:07:47;;;;;;;3.50;3.38;;;;;;;;;;6261387;28;20292;-78
2023/06/27 06:10:53;;;;;;;8.10;3.70;;;;;;;;;;6274399;28;20244;-78
2023/06/27 06:13:57;;;;;;;3.30;3.20;;;;;;;;;;6287032;28;20299;-81
2023/06/27 06:17:02;;;;;;;3.15;3.00;;;;;;;;;;6287628;28;20236;-77
2023/06/27 06:20:10;;;;;;;3.38;3.17;;;;;;;;;;6287929;28;20315;-79
2023/06/27 06:23:15;;;;;;;3.10;2.90;;;;;;;;;;6290570;28;20287;-80
2023/06/27 06:26:20;;;;;;;4.57;3.10;;;;;;;;;;6290104;28;20248;-80
2023/06/27 06:29:24;;;;;;;3.42;3.20;;;;;;;;;;6286637;28;20302;-80
2023/06/27 06:32:29;;;;;;;10.60;2.47;;;;;;;;;;6286515;28;20236;-79
2023/06/27 06:35:39;;;;;;;2.63;2.30;;;;;;;;;;6287539;28;20236;-80
2023/06/27 06:38:44;;;;;;;3.00;2.90;;;;;;;;;;6269290;28;20298;-80
2023/06/27 06:41:48;;;;;;;3.50;2.60;;;;;;;;;;6287850;28;20240;-80
2023/06/27 06:44:55;;;;;;;3.67;2.90;;;;;;;;;;6286190;28;20298;-79
2023/06/27 06:48:00;;;;;;;3.28;2.78;;;;;;;;;;6286872;28;20383;-80
2023/06/27 06:51:06;;;;;;;4.40;3.00;;;;;;;;;;6287569;28;20248;-80
2023/06/27 06:54:10;;;;;;;2.53;2.42;;;;;;;;;;6286235;28;20304;-80
2023/06/27 06:57:16;;;;;;;4.78;3.00;;;;;;;;;;6286215;28;20240;-81
2023/06/27 07:00:21;;;;;;;2.70;2.50;;;;;;;;;;6268714;28;20406;-78
2023/06/27 07:03:26;;;;;;;6.18;2.75;;;;;;;;;;6285783;28;20457;-80
2023/06/27 07:06:32;;;;;;;3.10;2.40;;;;;;;;;;6286375;28;20243;-79
2023/06/27 07:09:36;;;;;;;2.92;2.50;;;;;;;;;;6285974;28;20295;-80
2023/06/27 07:12:41;;;;;;;3.63;2.53;;;;;;;;;;6285435;28;20302;-79
2023/06/27 07:15:46;;;;;;;2.80;2.65;;;;;;;;;;6267759;28;20270;-81
2023/06/27 07:18:51;;;;;;;4.60;3.75;;;;;;;;;;6285386;28;20310;-79
2023/06/27 07:21:57;;;;;;;3.28;2.97;;;;;;;;;;6285956;28;20239;-78
2023/06/27 07:25:01;;;;;;;2.85;2.80;;;;;;;;;;6285414;28;20307;-79
2023/06/27 07:28:06;;;;;;;2.97;2.88;;;;;;;;;;6285556;28;20287;-78
2023/06/27 07:31:11;;;;;;;3.30;2.65;;;;;;;;;;6285728;28;20235;-79
2023/06/27 07:34:16;;;;;;;3.53;2.80;;;;;;;;;;6285628;28;20294;-79
2023/06/27 07:37:22;;;;;;;5.32;3.10;;;;;;;;;;6285598;28;20232;-77
2023/06/27 07:40:27;;;;;;;4.07;2.92;;;;;;;;;;6286165;28;20365;-79
2023/06/27 07:43:32;;;;;;;2.85;2.85;;;;;;;;;;6285238;28;20295;-79
2023/06/27 07:46:36;;;;;;;2.78;2.70;;;;;;;;;;6285302;28;20446;-81
2023/06/27 07:49:41;;;;;;;2.75;2.70;;;;;;;;;;6284952;28;20303;-80
2023/06/27 07:52:47;;;;;;;2.47;2.45;;;;;;;;;;6284808;28;20294;-81
2023/06/27 07:55:52;;;;;;;2.45;2.38;;;;;;;;;;6285000;28;20240;-80
2023/06/27 07:58:57;;;;;;;3.22;2.65;;;;;;;;;;6284844;28;20334;-81
2023/06/27 08:02:02;;;;;;;4.68;3.28;;;;;;;;;;6266969;28;20565;-79
2023/06/27 08:05:08;;;;;;;3.42;2.75;;;;;;;;;;6284945;28;20334;-79
2023/06/27 08:08:14;;;;;;;2.90;2.80;;;;;;;;;;6284552;28;20417;-78
2023/06/27 08:11:19;;;;;;;3.13;2.55;;;;;;;;;;6269881;28;20272;-78
2023/06/27 08:14:24;;;;;;;4.25;3.20;;;;;;;;;;6259992;28;20456;-78
2023/06/27 08:17:28;;;;;;;5.82;3.50;;;;;;;;;;6259890;28;20244;-78
2023/06/27 08:20:33;;;;;;;3.10;2.85;;;;;;;;;;6260858;28;20245;-80
2023/06/27 08:23:39;;;;;;;3.20;2.63;;;;;;;;;;6259767;28;20326;-78
2023/06/27 08:26:49;;;;;;;2.60;2.40;;;;;;;;;;6260133;28;20248;-78
2023/06/27 08:29:54;;;;;;;4.57;3.00;;;;;;;;;;6259487;28;20444;-80
2023/06/27 08:32:58;;;;;;;2.97;2.75;;;;;;;;;;6263221;28;20287;-79
2023/06/27 08:36:03;;;;;;;9.18;2.83;;;;;;;;;;6265444;28;20236;-78
2023/06/27 08:39:09;;;;;;;3.00;3.00;;;;;;;;;;6264203;28;20371;-76
2023/06/27 08:42:14;;;;;;;10.32;3.40;;;;;;;;;;6265201;28;20244;-78
2023/06/27 08:45:18;;;;;;;5.43;3.10;;;;;;;;;;6264947;28;20297;-79
2023/06/27 08:48:23;;;;;;;5.03;3.25;;;;;;;;;;6264571;28;20312;-80
2023/06/27 08:51:29;;;;;;;6.35;2.95;;;;;;;;;;6265130;28;20312;-80
2023/06/27 08:54:44;;;;;;;6.18;2.53;;;;;;;;;;6262965;28;20296;-80
2023/06/27 08:57:49;;;;;;;2.90;2.70;;;;;;;;;;6263860;28;20292;-79
2023/06/27 09:00:55;;;;;;;2.83;2.58;;;;;;;;;;6264296;28;20245;-80
2023/06/27 09:04:00;;;;;;;3.72;2.88;;;;;;;;;;6263914;28;20312;-80
2023/06/27 09:07:06;;;;;;;6.53;3.13;;;;;;;;;;6265494;28;20236;-81
2023/06/27 09:10:12;;;;;;;2.85;2.67;;;;;;;;;;6270287;28;20583;-80
2023/06/27 09:13:18;;;;;;;3.55;3.25;;;;;;;;;;6288902;28;20579;-77
2023/06/27 09:16:23;;;;;;;5.22;2.60;;;;;;;;;;6289633;28;20232;-80
2023/06/27 09:19:28;;;;;;;3.10;2.90;;;;;;;;;;6288008;28;20487;-79
2023/06/27 09:22:33;;;;;;;4.00;2.40;;;;;;;;;;6288270;28;20239;-80
2023/06/27 09:25:39;;;;;;;3.00;2.90;;;;;;;;;;6289400;28;20247;-80
2023/06/27 09:28:48;;;;;;;2.78;2.67;;;;;;;;;;6288106;28;20295;-75
2023/06/27 09:32:06;;;;;;;2.83;2.63;;;;;;;;;;6288632;28;20279;-80
2023/06/27 09:35:15;;;;;;;3.53;2.80;;;;;;;;;;6287092;28;20295;-78
2023/06/27 09:38:40;;;;;;;2.95;2.85;;;;;;;;;;6287733;28;20291;-79
2023/06/27 09:41:52;;;;;;;2.65;2.58;;;;;;;;;;6288173;28;20245;-79
2023/06/27 09:45:15;;;;;;;3.00;2.85;;;;;;;;;;6286921;28;20295;-76
2023/06/27 09:48:21;;;;;;;3.88;3.38;;;;;;;;;;6287672;28;20295;-79
2023/06/27 09:51:26;;;;;;;3.90;3.00;;;;;;;;;;6287434;28;20271;-79
2023/06/27 09:54:30;;;;;;;3.00;2.80;;;;;;;;;;6287440;28;20382;-80
2023/06/27 09:57:37;;;;;;;3.22;2.90;;;;;;;;;;6287272;28;20248;-80
2023/06/27 10:00:41;;;;;;;9.10;3.15;;;;;;;;;;6289200;28;20244;-79
2023/06/27 10:03:48;;;;;;;4.15;2.90;;;;;;;;;;6286515;28;20314;-79
2023/06/27 10:06:53;;;;;;;3.25;3.00;;;;;;;;;;6286835;28;20235;-77
2023/06/27 10:09:58;;;;;;;3.17;2.88;;;;;;;;;;6286766;28;20291;-74
2023/06/27 10:13:05;;;;;;;2.97;2.88;;;;;;;;;;6268048;28;20460;-79
2023/06/27 10:16:10;;;;;;;5.82;3.10;;;;;;;;;;6287472;28;20239;-78
2023/06/27 10:19:15;;;;;;;3.58;3.30;;;;;;;;;;6286522;28;20287;-78
2023/06/27 10:22:21;;;;;;;11.50;3.40;;;;;;;;;;6288102;28;20240;-79
2023/06/27 10:25:27;;;;;;;2.78;2.70;;;;;;;;;;6286372;28;20267;-80
2023/06/27 10:28:33;;;;;;;2.90;2.80;;;;;;;;;;6286879;28;20304;-80
2023/06/27 10:31:44;;;;;;;6.60;3.40;;;;;;;;;;6287435;28;20556;-80
2023/06/27 10:34:49;;;;;;;3.10;2.95;;;;;;;;;;6286912;28;20299;-78
2023/06/27 10:38:08;;;;;;;3.17;2.83;;;;;;;;;;6286893;28;20379;-79
2023/06/27 10:41:23;;;;;;;3.40;3.10;;;;;;;;;;6287460;28;20239;-79
2023/06/27 10:44:30;;;;;;;4.25;2.85;;;;;;;;;;6286249;28;20567;-80
2023/06/27 10:47:38;;;;;;;3.13;2.92;;;;;;;;;;6285711;28;20244;-81
2023/06/27 10:50:43;;;;;;;9.00;3.40;;;;;;;;;;6286827;28;20263;-81
2023/06/27 10:54:14;;;;;;;3.97;3.13;;;;;;;;;;6285110;28;20294;-81
2023/06/27 10:57:18;;;;;;;3.30;3.08;;;;;;;;;;6279049;28;20282;-81
2023/06/27 11:00:26;;;;;;;3.22;2.85;;;;;;;;;;6286188;28;20294;-80
2023/06/27 11:03:33;;;;;;;3.40;3.13;;;;;;;;;;6285069;28;20295;-80
2023/06/27 11:06:41;;;;;;;3.40;3.10;;;;;;;;;;6285998;28;20243;-81
2023/06/27 11:09:52;;;;;;;3.30;3.03;;;;;;;;;;6282830;28;20295;-80
2023/06/27 11:13:15;;;;;;;3.00;2.80;;;;;;;;;;6260157;28;20384;-80
2023/06/27 11:16:25;;;;;;;3.00;2.90;;;;;;;;;;6261268;28;20347;-79
2023/06/27 11:19:30;;;;;;;3.00;2.90;;;;;;;;;;6260107;28;20429;-81
2023/06/27 11:22:34;;;;;;;3.10;3.00;;;;;;;;;;6260441;28;20482;-79
2023/06/27 11:25:42;;;;;;;3.08;3.08;;;;;;;;;;6260905;28;20244;-80
2023/06/27 11:28:47;;;;;;;3.03;2.83;;;;;;;;;;6242217;28;20303;-80
2023/06/27 11:31:54;;;;;;;2.50;2.50;;;;;;;;;;6260576;28;20568;-81
2023/06/27 11:34:59;;;;;;;6.53;3.30;;;;;;;;;;6260494;28;20300;-81
2023/06/27 11:38:07;;;;;;;5.40;3.35;;;;;;;;;;6261649;28;20372;-80
2023/06/27 11:41:12;;;;;;;3.08;2.97;;;;;;;;;;6261015;28;20273;-81
2023/06/27 11:44:17;;;;;;;4.30;2.60;;;;;;;;;;6259918;28;20315;-81
2023/06/27 11:47:24;;;;;;;2.78;2.67;;;;;;;;;;6260499;28;20232;-80
2023/06/27 11:50:30;;;;;;;3.13;3.03;;;;;;;;;;6261776;28;20236;-81
2023/06/27 11:53:36;;;;;;;3.08;2.97;;;;;;;;;;6259565;28;20303;-81
2023/06/27 11:56:40;;;;;;;3.03;2.83;;;;;;;;;;6261122;28;20253;-80
2023/06/27 11:59:45;;;;;;;3.30;3.20;;;;;;;;;;6260592;28;20300;-80
2023/06/27 12:02:52;;;;;;;3.08;2.92;;;;;;;;;;6261538;28;20299;-80
2023/06/27 12:05:58;;;;;;;3.70;3.20;;;;;;;;;;6238367;28;20240;-79
2023/06/27 12:09:02;;;;;;;3.85;3.53;;;;;;;;;;6238299;28;20296;-80
2023/06/27 12:12:08;;;;;;;3.08;2.58;;;;;;;;;;6259755;28;20280;-79
2023/06/27 12:15:14;;;;;;;5.60;2.80;;;;;;;;;;6262441;28;20304;-80
2023/06/27 12:18:24;;;;;;;2.90;2.88;;;;;;;;;;6262359;28;20304;-80
2023/06/27 12:21:29;;;;;;;3.60;3.17;;;;;;;;;;6262046;28;20240;-78
2023/06/27 12:24:33;;;;;;;2.75;2.65;;;;;;;;;;6262589;28;20304;-78
2023/06/27 12:27:38;;;;;;;2.78;2.67;;;;;;;;;;6261987;28;20244;-78
2023/06/27 12:30:43;;;;;;;3.50;2.83;;;;;;;;;;6262702;28;20237;-79
2023/06/27 12:33:50;;;;;;;3.10;2.90;;;;;;;;;;6261776;28;20299;-80
2023/06/27 12:36:55;;;;;;;2.53;2.53;;;;;;;;;;6262898;28;20516;-79
2023/06/27 12:39:59;;;;;;;2.83;2.63;;;;;;;;;;6262061;28;20291;-77
2023/06/27 12:43:05;;;;;;;4.22;2.95;;;;;;;;;;6262031;28;20295;-79
2023/06/27 12:46:10;;;;;;;6.00;2.85;;;;;;;;;;6263321;28;20237;-80
2023/06/27 12:49:16;;;;;;;2.95;2.78;;;;;;;;;;6262294;28;20291;-80
2023/06/27 12:52:21;;;;;;;6.00;3.17;;;;;;;;;;6262603;28;20279;-80
2023/06/27 12:55:26;;;;;;;3.95;3.00;;;;;;;;;;6260148;28;20265;-81
2023/06/27 12:58:30;;;;;;;3.03;2.83;;;;;;;;;;6260002;28;20576;-81
2023/06/27 13:01:54;;;;;;;2.97;2.88;;;;;;;;;;6259862;28;20244;-81
2023/06/27 13:05:00;;;;;;;3.75;3.42;;;;;;;;;;6277079;28;20315;-81
2023/06/27 13:08:06;;;;;;;4.60;3.30;;;;;;;;;;6283824;28;20290;-81
2023/06/27 13:11:10;;;;;;;3.10;3.00;;;;;;;;;;6270659;28;20253;-81
2023/06/27 13:14:16;;;;;;;3.63;3.30;;;;;;;;;;6259226;28;20251;-81
2023/06/27 13:17:21;;;;;;;2.88;2.88;;;;;;;;;;6262590;28;20246;-81
2023/06/27 13:20:27;;;;;;;2.65;2.60;;;;;;;;;;6266729;28;20276;-81
2023/06/27 13:23:32;;;;;;;2.90;2.90;;;;;;;;;;6265473;28;20296;-78
2023/06/27 13:26:37;;;;;;;3.20;3.10;;;;;;;;;;6264321;28;20240;-81
2023/06/27 13:29:41;;;;;;;3.33;3.25;;;;;;;;;;6263527;28;20615;-81
2023/06/27 13:32:46;;;;;;;3.55;3.35;;;;;;;;;;6263689;28;20288;-82
2023/06/27 13:35:52;;;;;;;3.33;3.10;;;;;;;;;;6264414;28;20245;-80
2023/06/27 13:38:57;;;;;;;3.17;3.08;;;;;;;;;;6264418;28;20596;-80
2023/06/27 13:42:02;;;;;;;5.78;3.05;;;;;;;;;;6264110;28;20244;-80
2023/06/27 13:45:07;;;;;;;6.43;3.00;;;;;;;;;;6263724;28;20284;-79
2023/06/27 13:48:12;;;;;;;3.30;3.08;;;;;;;;;;6263273;28;20288;-79
2023/06/27 13:51:18;;;;;;;3.08;3.00;;;;;;;;;;6263331;28;20241;-79
2023/06/27 13:54:23;;;;;;;3.05;2.95;;;;;;;;;;6262382;28;20304;-79
2023/06/27 13:57:28;;;;;;;4.07;2.80;;;;;;;;;;6263107;28;20232;-79
2023/06/27 14:00:32;;;;;;;3.10;2.90;;;;;;;;;;6264430;28;20240;-79
2023/06/27 14:03:39;;;;;;;2.83;2.78;;;;;;;;;;6264061;28;20299;-80
2023/06/27 14:06:51;;;;;;;3.20;3.00;;;;;;;;;;6265361;28;20252;-80
2023/06/27 14:09:57;;;;;;;2.90;2.80;;;;;;;;;;6267468;28;20446;-80
2023/06/27 14:13:02;;;;;;;128.95;7.50;;;;;;;;;;6286718;28;20469;-79
2023/06/27 14:16:07;;;;;;;3.22;2.53;;;;;;;;;;6287666;28;20240;-79
2023/06/27 14:19:11;;;;;;;2.33;2.22;;;;;;;;;;6287353;28;20295;-80
2023/06/27 14:22:17;;;;;;;2.78;2.67;;;;;;;;;;6268656;28;20267;-79
2023/06/27 14:25:22;;;;;;;3.55;3.25;;;;;;;;;;6260352;28;20271;-79
2023/06/27 14:28:27;;;;;;;2.40;2.40;;;;;;;;;;6286691;28;20290;-79
2023/06/27 14:31:32;;;;;;;4.68;2.90;;;;;;;;;;6286154;28;20244;-80
2023/06/27 14:34:37;;;;;;;3.58;2.70;;;;;;;;;;6286422;28;20478;-80
2023/06/27 14:37:43;;;;;;;3.53;2.60;;;;;;;;;;6286540;28;20306;-81
2023/06/27 14:40:48;;;;;;;2.55;2.55;;;;;;;;;;6286984;28;20235;-81
2023/06/27 14:43:53;;;;;;;2.60;2.60;;;;;;;;;;6286455;28;20300;-80
2023/06/27 14:46:57;;;;;;;2.70;2.60;;;;;;;;;;6286457;28;20283;-81
2023/06/27 14:50:02;;;;;;;2.60;2.60;;;;;;;;;;6286205;28;20290;-82
2023/06/27 14:53:08;;;;;;;3.35;3.10;;;;;;;;;;6286098;28;20298;-80
2023/06/27 14:56:13;;;;;;;3.17;3.03;;;;;;;;;;6286395;28;20532;-81
2023/06/27 14:59:18;;;;;;;6.70;2.83;;;;;;;;;;6285860;28;20287;-82
2023/06/27 15:02:23;;;;;;;4.93;4.57;;;;;;;;;;6285648;28;20255;-81
2023/06/27 15:05:41;;;;;;;5.85;4.30;;;;;;;;;;6267094;28;20308;-82
2023/06/27 15:08:48;;;;;;;11.52;4.40;;;;;;;;;;6286154;28;20311;-82
2023/06/27 15:11:53;;;;;;;4.00;3.70;;;;;;;;;;6271242;28;20236;-81
2023/06/27 15:14:58;;;;;;;4.55;4.18;;;;;;;;;;6266022;28;20375;-81
2023/06/27 15:18:03;;;;;;;3.50;3.20;;;;;;;;;;6265568;28;20448;-79
2023/06/27 15:21:09;;;;;;;6.28;3.08;;;;;;;;;;6260914;28;20237;-80
2023/06/27 15:24:15;;;;;;;15.10;13.85;;;;;;;;;;6259960;28;20304;-80
2023/06/27 15:27:19;;;;;;;5.60;5.13;;;;;;;;;;6261000;28;20235;-81
2023/06/27 15:30:24;;;;;;;3.20;3.10;;;;;;;;;;6259927;28;20280;-80
2023/06/27 15:33:29;;;;;;;2.78;2.70;;;;;;;;;;6259857;28;20288;-82
2023/06/27 15:36:36;;;;;;;3.20;3.20;;;;;;;;;;6260791;28;20284;-81
2023/06/27 15:39:42;;;;;;;3.22;3.00;;;;;;;;;;6260171;28;20307;-80
2023/06/27 15:42:46;;;;;;;3.60;3.40;;;;;;;;;;6259889;28;20472;-81
2023/06/27 15:45:51;;;;;;;2.90;2.80;;;;;;;;;;6261132;28;20244;-80
2023/06/27 15:48:56;;;;;;;2.28;1.90;;;;;;;;;;6260292;28;20486;-81
2023/06/27 15:52:00;;;;;;;3.22;2.50;;;;;;;;;;6260702;28;20244;-81
2023/06/27 15:55:08;;;;;;;2.45;2.25;;;;;;;;;;6260139;28;20299;-81
2023/06/27 15:58:12;;;;;;;2.25;2.10;;;;;;;;;;6259832;28;20295;-81
2023/06/27 16:01:17;;;;;;;2.53;2.42;;;;;;;;;;6260562;28;20241;-81
2023/06/27 16:04:22;;;;;;;2.17;2.17;;;;;;;;;;6259973;28;20315;-81
2023/06/27 16:07:27;;;;;;;2.25;2.20;;;;;;;;;;6263737;28;20240;-80
2023/06/27 16:10:33;;;;;;;3.58;2.10;;;;;;;;;;6269031;28;20473;-81
2023/06/27 16:13:38;;;;;;;2.65;2.47;;;;;;;;;;6284562;28;20298;-81
2023/06/27 16:16:43;;;;;;;3.70;2.40;;;;;;;;;;6284760;28;20524;-81
2023/06/27 16:19:47;;;;;;;2.22;2.20;;;;;;;;;;6284847;28;20322;-81
2023/06/27 16:22:52;;;;;;;2.33;2.22;;;;;;;;;;6284006;28;20299;-81
2023/06/27 16:25:58;;;;;;;2.78;2.38;;;;;;;;;;6284636;28;20243;-81
2023/06/27 16:29:03;;;;;;;2.50;2.40;;;;;;;;;;6284603;28;20294;-81
2023/06/27 16:32:09;;;;;;;3.35;2.30;;;;;;;;;;6284631;28;20243;-82
2023/06/27 16:35:13;;;;;;;2.13;2.10;;;;;;;;;;6283746;28;20307;-81
2023/06/27 16:38:18;;;;;;;2.90;2.80;;;;;;;;;;6284323;28;20294;-82
2023/06/27 16:41:25;;;;;;;2.30;2.20;;;;;;;;;;6284895;28;20419;-81
2023/06/27 16:44:29;;;;;;;5.07;2.13;;;;;;;;;;6284604;28;20298;-81
2023/06/27 16:47:34;;;;;;;2.17;2.10;;;;;;;;;;6284055;28;20239;-81
2023/06/27 16:50:39;;;;;;;2.50;2.40;;;;;;;;;;6285437;28;20239;-81
2023/06/27 16:53:44;;;;;;;3.60;2.40;;;;;;;;;;6284356;28;20303;-81
2023/06/27 16:56:51;;;;;;;2.30;2.22;;;;;;;;;;6289631;28;20252;-82
2023/06/27 16:59:55;;;;;;;2.10;2.10;;;;;;;;;;6288467;28;20294;-81
2023/06/27 17:03:00;;;;;;;2.45;2.45;;;;;;;;;;6288154;28;20299;-81
2023/06/27 17:06:05;;;;;;;2.30;2.30;;;;;;;;;;6270901;28;20555;-82
2023/06/27 17:09:10;;;;;;;2.95;2.65;;;;;;;;;;6288989;28;20291;-80
2023/06/27 17:12:15;;;;;;;2.78;2.67;;;;;;;;;;6289245;28;20248;-83
2023/06/27 17:15:21;;;;;;;2.25;2.17;;;;;;;;;;6286803;28;20303;-81
2023/06/27 17:18:26;;;;;;;2.17;2.17;;;;;;;;;;6287696;28;20299;-83
2023/06/27 17:21:30;;;;;;;4.25;2.38;;;;;;;;;;6289092;28;20236;-80
2023/06/27 17:24:35;;;;;;;2.50;2.30;;;;;;;;;;6288401;28;20302;-81
2023/06/27 17:27:42;;;;;;;2.42;2.33;;;;;;;;;;6270687;28;20422;-80
2023/06/27 17:30:47;;;;;;;2.60;2.50;;;;;;;;;;6289296;28;20296;-81
2023/06/27 17:33:52;;;;;;;3.45;2.53;;;;;;;;;;6288357;28;20299;-81
2023/06/27 17:36:56;;;;;;;2.45;2.35;;;;;;;;;;6288300;28;20279;-80
2023/06/27 17:40:02;;;;;;;2.67;2.58;;;;;;;;;;6288425;28;20299;-79
2023/06/27 17:43:09;;;;;;;2.60;2.45;;;;;;;;;;6287653;28;20295;-81
2023/06/27 17:46:14;;;;;;;3.15;2.55;;;;;;;;;;6288413;28;20239;-80
2023/06/27 17:49:19;;;;;;;2.20;2.20;;;;;;;;;;6288193;28;20540;-81
2023/06/27 17:52:23;;;;;;;2.42;2.22;;;;;;;;;;6287192;28;20239;-81
2023/06/27 17:55:28;;;;;;;2.13;2.13;;;;;;;;;;6288715;28;20259;-80
2023/06/27 17:58:35;;;;;;;2.30;2.20;;;;;;;;;;6287544;28;20293;-80
2023/06/27 18:01:39;;;;;;;3.90;2.35;;;;;;;;;;6288695;28;20240;-80
2023/06/27 18:04:44;;;;;;;3.67;2.35;;;;;;;;;;6287573;28;20307;-81
2023/06/27 18:07:49;;;;;;;4.50;2.70;;;;;;;;;;6287881;28;20295;-80
2023/06/27 18:10:57;;;;;;;4.28;2.60;;;;;;;;;;6275942;28;20276;-80
2023/06/27 18:14:03;;;;;;;2.47;2.38;;;;;;;;;;6262797;28;20295;-79
2023/06/27 18:17:08;;;;;;;2.30;2.30;;;;;;;;;;6263556;28;20271;-78
2023/06/27 18:20:13;;;;;;;2.35;2.35;;;;;;;;;;6263036;28;20292;-79
2023/06/27 18:23:18;;;;;;;2.28;2.17;;;;;;;;;;6261367;28;20295;-80
2023/06/27 18:26:22;;;;;;;2.80;2.70;;;;;;;;;;6263662;28;20244;-81
2023/06/27 18:29:29;;;;;;;2.90;2.80;;;;;;;;;;6262965;28;20324;-81
2023/06/27 18:32:33;;;;;;;3.45;3.17;;;;;;;;;;6263164;28;20249;-81
2023/06/27 18:35:38;;;;;;;3.42;3.00;;;;;;;;;;6263705;28;20269;-78